createdAt,value
2019-03-06T00:01:14.196Z,8.20
2019-03-06T00:03:44.596Z,7.53
2019-03-06T00:06:16.901Z,7.13
2019-03-06T00:08:47.602Z,8.03
2019-03-06T00:11:18.981Z,8.07
2019-03-06T00:13:49.798Z,7.97
2019-03-06T00:16:20.535Z,7.73
2019-03-06T00:18:51.467Z,8.20
2019-03-06T00:21:22.261Z,7.30
2019-03-06T00:23:53.057Z,7.53
2019-03-06T00:26:23.780Z,7.93
2019-03-06T00:28:54.631Z,8.17
2019-03-06T00:31:25.468Z,7.60
2019-03-06T00:33:55.940Z,7.60
2019-03-06T00:36:27.129Z,8.20
2019-03-06T00:38:57.980Z,10.53
2019-03-06T00:41:33.297Z,7.67
2019-03-06T00:44:04.457Z,7.63
2019-03-06T00:46:34.848Z,7.93
2019-03-06T00:49:05.606Z,8.13
2019-03-06T00:51:36.089Z,8.03
2019-03-06T00:54:06.777Z,7.87
2019-03-06T00:56:37.611Z,7.70
2019-03-06T00:59:08.378Z,7.80
2019-03-06T01:01:39.382Z,7.73
2019-03-06T01:04:10.130Z,7.97
2019-03-06T01:06:40.715Z,8.03
2019-03-06T01:09:12.093Z,8.30
2019-03-06T01:11:42.823Z,8.10
2019-03-06T01:14:14.068Z,8.10
2019-03-06T01:16:44.771Z,8.10
2019-03-06T01:19:15.434Z,7.90
2019-03-06T01:21:46.291Z,8.30
2019-03-06T01:24:17.027Z,8.70
2019-03-06T01:26:47.943Z,8.37
2019-03-06T01:29:18.812Z,8.30
2019-03-06T01:31:49.519Z,8.10
2019-03-06T01:34:21.890Z,8.10
2019-03-06T01:36:54.292Z,8.17
2019-03-06T01:39:29.614Z,7.67
2019-03-06T01:42:02.092Z,8.33
2019-03-06T01:44:37.548Z,8.67
2019-03-06T01:47:08.572Z,8.03
2019-03-06T01:49:39.318Z,9.10
2019-03-06T01:52:10.261Z,8.57
2019-03-06T01:54:40.781Z,9.27
2019-03-06T01:57:11.613Z,9.23
2019-03-06T01:59:42.342Z,9.30
2019-03-06T02:02:13.407Z,9.90
2019-03-06T02:04:44.233Z,9.50
2019-03-06T02:07:14.953Z,9.97
2019-03-06T02:09:46.099Z,9.87
2019-03-06T02:12:16.983Z,11.00
2019-03-06T02:14:47.815Z,10.07
2019-03-06T02:17:18.740Z,11.33
2019-03-06T02:19:49.954Z,10.60
2019-03-06T02:22:20.805Z,10.40
2019-03-06T02:24:51.279Z,10.13
2019-03-06T02:27:22.072Z,11.57
2019-03-06T02:29:52.574Z,10.83
2019-03-06T02:32:23.356Z,10.83
2019-03-06T02:34:54.169Z,11.30
2019-03-06T02:37:24.650Z,11.20
2019-03-06T02:39:55.415Z,10.93
2019-03-06T02:42:26.242Z,10.80
2019-03-06T02:44:56.907Z,10.77
2019-03-06T02:47:27.627Z,12.20
2019-03-06T02:49:58.346Z,11.93
2019-03-06T02:52:29.205Z,11.60
2019-03-06T02:55:00.524Z,11.00
2019-03-06T02:57:31.308Z,11.60
2019-03-06T03:00:03.743Z,11.00
2019-03-06T03:02:36.266Z,11.53
2019-03-06T03:05:11.265Z,12.43
2019-03-06T03:07:42.025Z,11.60
2019-03-06T03:10:13.164Z,11.30
2019-03-06T03:12:43.981Z,12.80
2019-03-06T03:15:14.838Z,11.63
2019-03-06T03:17:45.655Z,11.53
2019-03-06T03:20:16.776Z,12.03
2019-03-06T03:22:47.521Z,11.30
2019-03-06T03:25:18.279Z,12.33
2019-03-06T03:27:49.346Z,12.40
2019-03-06T03:30:20.036Z,12.83
2019-03-06T03:32:50.876Z,12.23
2019-03-06T03:35:21.706Z,12.07
2019-03-06T03:37:52.155Z,11.50
2019-03-06T03:40:23.097Z,11.50
2019-03-06T03:42:54.136Z,12.50
2019-03-06T03:45:24.873Z,11.60
2019-03-06T03:47:55.721Z,11.33
2019-03-06T03:50:26.981Z,11.63
2019-03-06T03:52:57.420Z,11.60
2019-03-06T03:55:27.881Z,12.60
2019-03-06T03:57:58.637Z,11.87
2019-03-06T04:00:29.112Z,11.97
2019-03-06T04:03:00.335Z,11.60
2019-03-06T04:05:31.165Z,12.23
2019-03-06T04:08:01.874Z,12.50
2019-03-06T04:10:32.336Z,11.67
2019-03-06T04:13:03.064Z,11.50
2019-03-06T04:15:33.957Z,11.73
2019-03-06T04:18:04.354Z,10.80
2019-03-06T04:20:35.191Z,12.83
2019-03-06T04:23:06.103Z,12.07
2019-03-06T04:25:37.331Z,11.10
2019-03-06T04:28:08.226Z,12.00
2019-03-06T04:30:39.010Z,11.27
2019-03-06T04:33:09.474Z,11.63
2019-03-06T04:35:39.976Z,11.80
2019-03-06T04:38:10.800Z,11.93
2019-03-06T04:40:41.637Z,11.13
2019-03-06T04:43:12.511Z,11.10
2019-03-06T04:45:43.317Z,11.37
2019-03-06T04:48:14.012Z,10.63
2019-03-06T04:50:44.753Z,11.60
2019-03-06T04:53:15.172Z,10.47
2019-03-06T04:55:46.051Z,11.57
2019-03-06T04:58:16.979Z,11.40
2019-03-06T05:00:47.846Z,11.77
2019-03-06T05:03:18.821Z,14.20
2019-03-06T05:05:49.696Z,12.23
2019-03-06T05:08:20.519Z,11.90
2019-03-06T05:10:51.350Z,10.80
2019-03-06T05:13:22.110Z,11.33
2019-03-06T05:15:52.941Z,10.23
2019-03-06T05:18:25.415Z,10.87
2019-03-06T05:20:56.286Z,11.37
2019-03-06T05:23:26.705Z,11.73
2019-03-06T05:25:57.518Z,11.37
2019-03-06T05:28:28.319Z,11.70
2019-03-06T05:31:05.542Z,10.90
2019-03-06T05:33:36.303Z,10.80
2019-03-06T05:36:16.209Z,10.67
2019-03-06T05:39:05.319Z,10.83
2019-03-06T05:41:36.548Z,11.27
2019-03-06T05:44:07.367Z,10.53
2019-03-06T05:46:38.181Z,10.97
2019-03-06T05:49:09.464Z,11.70
2019-03-06T05:51:41.558Z,12.10
2019-03-06T05:54:12.567Z,11.13
2019-03-06T05:56:48.462Z,11.40
2019-03-06T05:59:19.549Z,11.67
2019-03-06T06:01:50.333Z,11.50
2019-03-06T06:04:21.524Z,11.80
2019-03-06T06:06:52.359Z,12.03
2019-03-06T06:09:23.095Z,12.53
2019-03-06T06:11:53.823Z,11.67
2019-03-06T06:14:24.605Z,12.23
2019-03-06T06:16:55.670Z,12.73
2019-03-06T06:19:26.640Z,12.20
2019-03-06T06:21:58.732Z,13.13
2019-03-06T06:24:29.542Z,13.23
2019-03-06T06:27:00.031Z,13.13
2019-03-06T06:29:31.139Z,12.60
2019-03-06T06:32:02.674Z,12.43
2019-03-06T06:34:33.500Z,12.77
2019-03-06T06:37:04.361Z,12.23
2019-03-06T06:39:35.281Z,12.97
2019-03-06T06:42:06.110Z,12.77
2019-03-06T06:44:36.837Z,12.70
2019-03-06T06:47:07.577Z,13.07
2019-03-06T06:49:38.094Z,13.90
2019-03-06T06:52:20.729Z,15.30
2019-03-06T06:55:09.704Z,18.07
2019-03-06T06:57:52.636Z,19.07
2019-03-06T07:00:51.813Z,19.33
2019-03-06T07:03:38.344Z,19.03
2019-03-06T07:06:13.397Z,17.73
2019-03-06T07:08:51.902Z,17.13
2019-03-06T07:11:35.936Z,15.37
2019-03-06T07:14:20.205Z,15.17
2019-03-06T07:16:52.666Z,14.13
2019-03-06T07:19:37.254Z,15.37
2019-03-06T07:22:10.391Z,14.07
2019-03-06T07:24:51.695Z,13.87
2019-03-06T07:27:30.011Z,14.27
2019-03-06T07:30:08.710Z,14.40
2019-03-06T07:32:46.811Z,13.57
2019-03-06T07:35:51.127Z,12.87
2019-03-06T07:38:22.004Z,12.60
2019-03-06T07:40:56.772Z,13.37
2019-03-06T07:43:29.179Z,13.37
2019-03-06T07:46:01.309Z,11.97
2019-03-06T07:48:33.800Z,12.57
2019-03-06T07:51:24.335Z,13.00
2019-03-06T07:54:01.895Z,12.23
2019-03-06T07:56:34.377Z,12.73
2019-03-06T07:59:05.417Z,12.17
2019-03-06T08:01:45.077Z,12.97
2019-03-06T08:04:16.629Z,13.40
2019-03-06T08:06:48.746Z,11.73
2019-03-06T08:09:21.159Z,12.73
2019-03-06T08:11:53.731Z,12.13
2019-03-06T08:14:42.162Z,12.13
2019-03-06T08:17:26.674Z,12.13
2019-03-06T08:20:11.208Z,12.23
2019-03-06T08:22:59.858Z,12.03
2019-03-06T08:25:35.295Z,11.70
2019-03-06T08:28:06.031Z,11.47
2019-03-06T08:30:38.410Z,11.57
2019-03-06T08:33:17.982Z,11.50
2019-03-06T08:35:41.721Z,11.47
2019-03-06T08:38:12.587Z,11.10
2019-03-06T08:40:43.521Z,10.97
2019-03-06T08:43:14.317Z,10.97
2019-03-06T08:46:02.998Z,11.07
2019-03-06T08:48:38.036Z,10.07
2019-03-06T08:51:13.372Z,13.03
2019-03-06T08:53:51.909Z,10.93
2019-03-06T08:56:38.957Z,10.57
2019-03-06T08:59:19.977Z,9.60
2019-03-06T09:02:00.989Z,10.40
2019-03-06T09:04:45.238Z,9.93
2019-03-06T09:07:18.081Z,10.27
2019-03-06T09:09:56.286Z,9.80
2019-03-06T09:12:40.430Z,10.07
2019-03-06T09:15:15.470Z,9.50
2019-03-06T09:17:47.844Z,9.93
2019-03-06T09:20:40.738Z,9.63
2019-03-06T09:23:23.137Z,9.60
2019-03-06T09:25:56.302Z,10.23
2019-03-06T09:28:44.063Z,9.40
2019-03-06T09:31:25.266Z,9.67
2019-03-06T09:34:00.363Z,9.53
2019-03-06T09:36:33.077Z,9.33
2019-03-06T09:39:07.152Z,9.03
2019-03-06T09:41:39.624Z,9.57
2019-03-06T09:44:12.017Z,9.00
2019-03-06T09:46:47.693Z,8.83
2019-03-06T09:49:26.076Z,12.53
2019-03-06T09:52:04.486Z,13.93
2019-03-06T09:54:55.141Z,14.77
2019-03-06T09:57:27.962Z,10.67
2019-03-06T10:00:00.451Z,8.90
2019-03-06T10:02:47.867Z,8.60
2019-03-06T10:05:26.092Z,8.07
2019-03-06T10:08:00.883Z,7.10
2019-03-06T10:10:36.256Z,7.60
2019-03-06T10:13:17.629Z,7.87
2019-03-06T10:15:50.100Z,7.17
2019-03-06T10:18:26.848Z,7.10
2019-03-06T10:20:58.116Z,8.10
2019-03-06T10:23:29.069Z,7.50
2019-03-06T10:25:59.553Z,8.00
2019-03-06T10:28:30.433Z,9.10
2019-03-06T10:31:02.698Z,10.13
2019-03-06T10:33:33.642Z,10.67
2019-03-06T10:36:05.359Z,8.17
2019-03-06T10:38:35.737Z,7.70
2019-03-06T10:41:06.555Z,7.43
2019-03-06T10:43:37.404Z,6.80
2019-03-06T10:46:09.533Z,6.80
2019-03-06T10:48:40.397Z,7.53
2019-03-06T10:51:11.392Z,7.63
2019-03-06T10:53:42.271Z,6.30
2019-03-06T10:56:14.451Z,7.07
2019-03-06T10:58:45.283Z,6.73
2019-03-06T11:01:17.370Z,6.77
2019-03-06T11:03:52.386Z,7.40
2019-03-06T11:06:22.886Z,5.90
2019-03-06T11:08:53.745Z,6.73
2019-03-06T11:11:24.389Z,5.57
2019-03-06T11:13:55.265Z,7.27
2019-03-06T11:16:26.063Z,10.43
2019-03-06T11:18:57.407Z,6.30
2019-03-06T11:21:28.438Z,6.97
2019-03-06T11:23:59.172Z,6.43
2019-03-06T11:26:30.535Z,6.07
2019-03-06T11:29:01.467Z,5.80
2019-03-06T11:31:33.334Z,5.40
2019-03-06T11:34:04.556Z,5.73
2019-03-06T11:36:35.456Z,5.50
2019-03-06T11:39:09.162Z,5.87
2019-03-06T11:41:40.284Z,5.67
2019-03-06T11:44:11.002Z,5.50
2019-03-06T11:46:41.837Z,6.87
2019-03-06T11:49:12.579Z,6.47
2019-03-06T11:51:43.398Z,6.70
2019-03-06T11:54:14.543Z,6.77
2019-03-06T11:56:45.376Z,6.63
2019-03-06T11:59:15.821Z,7.07
2019-03-06T12:01:48.457Z,6.47
2019-03-06T12:04:19.303Z,5.80
2019-03-06T12:06:50.198Z,6.00
2019-03-06T12:09:26.058Z,5.47
2019-03-06T12:11:57.054Z,5.80
2019-03-06T12:14:27.563Z,5.83
2019-03-06T12:16:58.008Z,6.97
2019-03-06T12:19:28.511Z,9.07
2019-03-06T12:21:59.494Z,6.40
2019-03-06T12:24:30.317Z,5.13
2019-03-06T12:27:01.358Z,5.13
2019-03-06T12:29:32.311Z,5.70
2019-03-06T12:32:03.849Z,5.23
2019-03-06T12:34:34.433Z,4.63
2019-03-06T12:37:05.225Z,4.97
2019-03-06T12:39:36.155Z,5.87
2019-03-06T12:42:13.918Z,5.23
2019-03-06T12:44:39.672Z,5.03
2019-03-06T12:47:10.976Z,4.87
2019-03-06T12:49:42.067Z,4.90
2019-03-06T12:52:12.951Z,4.33
2019-03-06T12:54:43.637Z,4.23
2019-03-06T12:57:14.890Z,5.63
2019-03-06T12:59:45.720Z,5.30
2019-03-06T13:02:16.441Z,6.80
2019-03-06T13:04:47.194Z,6.10
2019-03-06T13:07:18.219Z,5.70
2019-03-06T13:09:49.473Z,4.93
2019-03-06T13:12:20.298Z,5.00
2019-03-06T13:14:51.143Z,5.13
2019-03-06T13:17:22.418Z,4.53
2019-03-06T13:19:53.247Z,4.50
2019-03-06T13:22:24.108Z,4.80
2019-03-06T13:24:54.909Z,4.60
2019-03-06T13:27:25.641Z,4.13
2019-03-06T13:29:56.140Z,3.57
2019-03-06T13:32:28.547Z,3.57
2019-03-06T13:34:59.876Z,3.67
2019-03-06T13:37:30.771Z,3.23
2019-03-06T13:40:03.311Z,3.23
2019-03-06T13:42:34.138Z,3.40
2019-03-06T13:45:07.045Z,3.47
2019-03-06T13:47:38.068Z,3.63
2019-03-06T13:50:12.724Z,3.10
2019-03-06T13:52:43.645Z,3.40
2019-03-06T13:55:16.315Z,3.30
2019-03-06T13:57:47.605Z,3.37
2019-03-06T14:00:19.915Z,3.10
2019-03-06T14:02:54.464Z,3.03
2019-03-06T14:05:25.680Z,2.90
2019-03-06T14:07:57.025Z,2.83
2019-03-06T14:10:28.101Z,3.27
2019-03-06T14:12:58.921Z,3.00
2019-03-06T14:15:29.766Z,3.17
2019-03-06T14:18:00.909Z,2.90
2019-03-06T14:20:33.307Z,3.20
2019-03-06T14:23:04.732Z,3.10
2019-03-06T14:25:35.671Z,3.13
2019-03-06T14:28:06.503Z,3.17
2019-03-06T14:30:39.328Z,3.43
2019-03-06T14:33:15.083Z,3.40
2019-03-06T14:35:44.384Z,3.20
2019-03-06T14:38:15.852Z,3.70
2019-03-06T14:40:48.429Z,3.23
2019-03-06T14:43:20.826Z,3.43
2019-03-06T14:45:55.059Z,3.50
2019-03-06T14:48:28.544Z,3.03
2019-03-06T14:51:02.718Z,3.90
2019-03-06T14:53:36.305Z,3.90
2019-03-06T14:56:07.104Z,3.60
2019-03-06T14:58:37.936Z,3.93
2019-03-06T15:01:08.786Z,3.80
2019-03-06T15:03:39.503Z,4.10
2019-03-06T15:06:10.341Z,3.70
2019-03-06T15:08:41.076Z,4.67
2019-03-06T15:11:12.006Z,4.20
2019-03-06T15:13:43.068Z,3.97
2019-03-06T15:16:14.163Z,3.80
2019-03-06T15:18:44.986Z,3.63
2019-03-06T15:21:15.814Z,4.03
2019-03-06T15:23:46.619Z,3.87
2019-03-06T15:26:17.655Z,3.50
2019-03-06T15:28:48.417Z,3.93
2019-03-06T15:31:19.325Z,10.53
2019-03-06T15:33:50.191Z,8.80
2019-03-06T15:36:21.057Z,4.70
2019-03-06T15:38:51.963Z,4.20
2019-03-06T15:41:22.774Z,4.30
2019-03-06T15:43:54.646Z,4.67
2019-03-06T15:46:26.900Z,3.83
2019-03-06T15:48:57.887Z,4.10
2019-03-06T15:51:28.814Z,4.10
2019-03-06T15:54:00.148Z,4.47
2019-03-06T15:56:30.996Z,5.20
2019-03-06T15:59:01.760Z,4.73
2019-03-06T16:01:34.179Z,4.97
2019-03-06T16:04:06.880Z,4.90
2019-03-06T16:06:37.699Z,5.30
2019-03-06T16:09:09.293Z,5.87
2019-03-06T16:11:40.568Z,5.27
2019-03-06T16:14:11.900Z,5.83
2019-03-06T16:16:45.206Z,5.50
2019-03-06T16:19:19.202Z,5.03
2019-03-06T16:21:50.370Z,5.30
2019-03-06T16:24:21.828Z,5.17
2019-03-06T16:26:53.021Z,9.30
2019-03-06T16:29:23.896Z,6.63
2019-03-06T16:31:54.888Z,6.33
2019-03-06T16:34:25.706Z,6.47
2019-03-06T16:36:56.542Z,6.03
2019-03-06T16:39:27.734Z,6.33
2019-03-06T16:41:58.287Z,7.63
2019-03-06T16:44:29.083Z,6.27
2019-03-06T16:47:06.449Z,5.90
2019-03-06T16:49:32.381Z,6.80
2019-03-06T16:52:03.878Z,6.23
2019-03-06T16:54:34.822Z,6.93
2019-03-06T16:57:05.692Z,7.30
2019-03-06T16:59:36.537Z,6.83
2019-03-06T17:02:07.142Z,7.13
2019-03-06T17:04:38.988Z,7.40
2019-03-06T17:07:09.518Z,7.73
2019-03-06T17:09:40.384Z,7.23
2019-03-06T17:12:11.607Z,7.63
2019-03-06T17:14:42.526Z,7.30
2019-03-06T17:17:13.542Z,7.83
2019-03-06T17:19:44.498Z,7.53
2019-03-06T17:22:15.716Z,7.70
2019-03-06T17:24:46.575Z,7.93
2019-03-06T17:27:17.522Z,8.33
2019-03-06T17:29:48.348Z,9.13
2019-03-06T17:32:19.190Z,8.33
2019-03-06T17:34:50.310Z,9.90
2019-03-06T17:37:21.601Z,8.53
2019-03-06T17:39:52.151Z,8.77
2019-03-06T17:42:23.126Z,10.03
2019-03-06T17:44:54.317Z,8.77
2019-03-06T17:47:25.021Z,8.57
2019-03-06T17:49:56.045Z,8.40
2019-03-06T17:52:27.169Z,8.80
2019-03-06T17:54:58.245Z,8.80
2019-03-06T17:57:29.181Z,9.00
2019-03-06T17:59:59.669Z,8.87
2019-03-06T18:02:30.260Z,8.63
2019-03-06T18:05:01.076Z,8.83
2019-03-06T18:07:31.954Z,9.57
2019-03-06T18:10:02.872Z,8.90
2019-03-06T18:12:33.688Z,9.20
2019-03-06T18:15:07.410Z,8.70
2019-03-06T18:17:37.940Z,8.60
2019-03-06T18:20:11.931Z,8.20
2019-03-06T18:22:42.756Z,8.63
2019-03-06T18:25:16.280Z,8.43
2019-03-06T18:27:47.591Z,7.80
2019-03-06T18:30:19.522Z,8.23
2019-03-06T18:32:50.694Z,8.13
2019-03-06T18:35:22.696Z,7.70
2019-03-06T18:37:53.623Z,8.33
2019-03-06T18:40:31.306Z,8.00
2019-03-06T18:43:02.082Z,7.77
2019-03-06T18:45:32.952Z,8.13
2019-03-06T18:48:03.842Z,7.23
2019-03-06T18:50:34.708Z,7.13
2019-03-06T18:53:11.414Z,7.47
2019-03-06T18:55:42.661Z,7.37
2019-03-06T18:58:14.222Z,7.40
2019-03-06T19:00:46.518Z,7.33
2019-03-06T19:03:17.093Z,7.07
2019-03-06T19:05:48.108Z,6.63
2019-03-06T19:08:19.375Z,7.20
2019-03-06T19:10:50.375Z,6.90
2019-03-06T19:13:22.728Z,6.83
2019-03-06T19:15:53.913Z,6.57
2019-03-06T19:18:24.942Z,6.93
2019-03-06T19:20:56.471Z,6.67
2019-03-06T19:23:27.343Z,6.20
2019-03-06T19:25:58.447Z,6.20
2019-03-06T19:28:29.306Z,6.23
2019-03-06T19:31:00.126Z,6.97
2019-03-06T19:33:31.290Z,6.47
2019-03-06T19:36:09.427Z,6.17
2019-03-06T19:38:39.966Z,5.73
2019-03-06T19:41:11.056Z,6.10
2019-03-06T19:43:42.092Z,6.43
2019-03-06T19:46:14.660Z,6.00
2019-03-06T19:48:45.549Z,6.07
2019-03-06T19:51:16.431Z,5.30
2019-03-06T19:53:48.427Z,6.17
2019-03-06T19:56:19.375Z,5.97
2019-03-06T19:58:50.280Z,6.03
2019-03-06T20:01:21.138Z,5.60
2019-03-06T20:03:52.181Z,5.67
2019-03-06T20:06:26.960Z,5.70
2019-03-06T20:08:58.760Z,5.70
2019-03-06T20:11:58.509Z,6.03
2019-03-06T20:14:18.132Z,6.73
2019-03-06T20:16:48.999Z,5.90
2019-03-06T20:19:19.819Z,5.47
2019-03-06T20:21:50.738Z,5.20
2019-03-06T20:24:21.713Z,5.20
2019-03-06T20:26:52.533Z,5.47
2019-03-06T20:29:23.503Z,5.90
2019-03-06T20:31:53.963Z,5.47
2019-03-06T20:34:24.772Z,5.50
2019-03-06T20:36:55.689Z,5.27
2019-03-06T20:39:26.201Z,5.70
2019-03-06T20:41:57.043Z,5.70
2019-03-06T20:44:32.268Z,5.90
2019-03-06T20:47:03.155Z,5.90
2019-03-06T20:49:34.154Z,5.90
2019-03-06T20:52:05.205Z,5.63
2019-03-06T20:54:36.056Z,5.63
2019-03-06T20:57:06.984Z,5.30
2019-03-06T20:59:37.812Z,5.57
2019-03-06T21:02:08.642Z,5.37
2019-03-06T21:04:39.613Z,5.13
2019-03-06T21:07:10.585Z,5.40
2019-03-06T21:09:41.544Z,5.53
2019-03-06T21:12:12.408Z,5.47
2019-03-06T21:14:46.014Z,5.13
2019-03-06T21:17:16.941Z,4.90
2019-03-06T21:19:48.214Z,5.40
2019-03-06T21:22:19.022Z,5.43
2019-03-06T21:24:50.011Z,5.10
2019-03-06T21:27:20.960Z,5.70
2019-03-06T21:29:51.747Z,5.03
2019-03-06T21:32:23.590Z,4.93
2019-03-06T21:34:54.499Z,4.83
2019-03-06T21:37:25.382Z,5.20
2019-03-06T21:39:57.332Z,4.90
2019-03-06T21:42:27.801Z,5.70
2019-03-06T21:44:58.756Z,5.07
2019-03-06T21:47:31.383Z,5.57
2019-03-06T21:50:02.322Z,5.50
2019-03-06T21:52:33.185Z,6.33
2019-03-06T21:55:04.715Z,4.93
2019-03-06T21:57:35.576Z,5.87
2019-03-06T22:00:09.319Z,5.53
2019-03-06T22:02:40.195Z,5.57
2019-03-06T22:05:10.706Z,5.17
2019-03-06T22:07:41.559Z,5.20
2019-03-06T22:10:15.468Z,4.97
2019-03-06T22:12:46.383Z,5.17
2019-03-06T22:15:18.571Z,5.57
2019-03-06T22:17:49.507Z,6.03
2019-03-06T22:20:19.944Z,5.27
2019-03-06T22:22:50.722Z,6.00
2019-03-06T22:25:21.611Z,6.10
2019-03-06T22:27:52.497Z,6.03
2019-03-06T22:30:24.409Z,5.60
2019-03-06T22:32:55.253Z,7.60
2019-03-06T22:35:26.087Z,5.37
2019-03-06T22:37:57.466Z,5.50
2019-03-06T22:40:28.614Z,6.63
2019-03-06T22:42:59.525Z,5.90
2019-03-06T22:45:29.979Z,6.03
2019-03-06T22:48:00.825Z,5.67
2019-03-06T22:50:31.361Z,5.37
2019-03-06T22:53:02.293Z,5.80
2019-03-06T22:55:33.235Z,5.93
2019-03-06T22:58:04.182Z,6.10
2019-03-06T23:00:45.413Z,6.10
2019-03-06T23:03:18.620Z,5.70
2019-03-06T23:05:50.975Z,5.90
2019-03-06T23:08:23.455Z,5.70
2019-03-06T23:10:57.057Z,5.93
2019-03-06T23:13:28.200Z,5.33
2019-03-06T23:15:59.036Z,5.93
2019-03-06T23:18:29.874Z,5.73
2019-03-06T23:21:00.709Z,5.77
2019-03-06T23:23:31.649Z,5.50
2019-03-06T23:26:02.481Z,5.53
2019-03-06T23:28:33.319Z,5.80
2019-03-06T23:31:04.324Z,5.93
2019-03-06T23:33:35.093Z,6.00
2019-03-06T23:36:05.920Z,5.77
2019-03-06T23:38:38.430Z,5.80
2019-03-06T23:41:10.947Z,6.30
2019-03-06T23:43:41.823Z,5.73
2019-03-06T23:46:14.329Z,5.97
2019-03-06T23:48:45.304Z,6.40
2019-03-06T23:51:18.009Z,5.67
2019-03-06T23:53:52.863Z,6.47
2019-03-06T23:56:23.689Z,6.37
2019-03-06T23:58:54.621Z,5.90
